Time;durP1;ratioP1;P1;durP2;ratioP2;P2;SDS_P1;SDS_P2;PMS_P1;PMS_P2;Temp;Humidity;BMP_temperature;BMP_pressure;BME280_temperature;BME280_humidity;BME280_pressure;Samples;Min_cycle;Max_cycle;Signal;HPM_P1;HPM_P2
2022/05/22 00:01:59;;;;;;;10.43;3.50;;;;;;;-148.88;86.56;76203.81;5034511;28;20033;-85
2022/05/22 00:04:25;;;;;;;9.50;3.00;;;;;;;-148.88;86.62;76207.88;5034188;28;20496;-85
2022/05/22 00:06:51;;;;;;;14.48;3.20;;;;;;;-148.88;86.92;76195.69;5034413;28;20029;-84
2022/05/22 00:09:21;;;;;;;7.05;3.00;;;;;;;-148.88;86.28;76193.66;5033864;28;20451;-84
2022/05/22 00:11:49;;;;;;;9.43;3.38;;;;;;;-148.88;87.01;76191.63;5034924;28;20466;-85
2022/05/22 00:14:16;;;;;;;9.15;3.25;;;;;;;-148.88;87.20;76183.50;5034184;28;20506;-85
2022/05/22 00:16:42;;;;;;;8.48;3.40;;;;;;;-148.88;87.29;76185.53;5034243;28;20486;-84
2022/05/22 00:19:17;;;;;;;9.60;3.42;;;;;;;-148.88;87.23;76187.56;5017194;28;20021;-85
2022/05/22 00:21:44;;;;;;;7.63;3.75;;;;;;;-148.88;87.99;76183.50;5034076;28;20033;-85
2022/05/22 00:24:11;;;;;;;6.93;3.28;;;;;;;-148.88;87.85;76187.56;5034091;28;20112;-85
2022/05/22 00:26:40;;;;;;;8.43;3.35;;;;;;;-148.88;87.61;76183.50;5033449;28;20108;-85
2022/05/22 00:29:09;;;;;;;10.82;3.00;;;;;;;-148.88;87.94;76191.63;5034041;28;20101;-85
2022/05/22 00:31:35;;;;;;;9.18;3.53;;;;;;;-148.88;87.58;76203.81;5032877;28;20025;-84
2022/05/22 00:34:01;;;;;;;10.88;3.38;;;;;;;-148.88;87.75;76191.63;5034615;28;20430;-85
2022/05/22 00:36:29;;;;;;;9.65;3.45;;;;;;;-148.88;87.20;76193.66;5034154;28;20022;-85
2022/05/22 00:38:58;;;;;;;7.93;3.55;;;;;;;-148.88;86.88;76201.78;5033708;28;20489;-83
2022/05/22 00:41:23;;;;;;;10.43;3.78;;;;;;;-148.88;87.39;76193.66;5032836;28;20025;-84
2022/05/22 00:43:57;;;;;;;8.57;4.68;;;;;;;-148.88;87.38;76191.63;5033539;28;20026;-85
2022/05/22 00:46:23;;;;;;;;;;;;;;;-148.88;87.58;76183.50;5033179;28;20030;-84
2022/05/22 00:48:55;;;;;;;12.05;8.00;;;;;;;-148.88;87.73;76185.53;5016682;28;20358;-85
2022/05/22 00:51:40;;;;;;;16.15;9.40;;;;;;;-148.88;88.31;76195.69;5033755;28;20033;-85
2022/05/22 00:54:18;;;;;;;17.05;10.95;;;;;;;-148.88;87.87;76195.69;5032908;28;20044;-85
2022/05/22 00:56:56;;;;;;;12.90;7.78;;;;;;;-148.88;89.46;76195.69;5016339;28;20025;-85
2022/05/22 00:59:38;;;;;;;17.02;9.75;;;;;;;-148.88;90.01;76193.66;5016014;28;20025;-84
2022/05/22 01:02:04;;;;;;;48.67;27.45;;;;;;;-148.88;89.55;76199.75;5033256;28;20045;-85
2022/05/22 01:04:35;;;;;;;50.03;28.90;;;;;;;-148.88;89.18;76205.84;5016465;28;20037;-84
2022/05/22 01:07:04;;;;;;;23.95;15.60;;;;;;;-148.88;89.92;76211.94;5017160;28;20111;-85
2022/05/22 01:09:29;;;;;;;10.98;5.68;;;;;;;-148.88;89.97;76236.31;5016960;28;20026;-84
2022/05/22 01:12:02;;;;;;;13.98;5.93;;;;;;;-148.88;90.58;76240.38;5036414;28;20112;-83
2022/05/22 01:14:28;;;;;;;12.07;6.65;;;;;;;-148.88;90.36;76240.38;5018521;28;20022;-85
2022/05/22 01:17:02;;;;;;;14.45;5.95;;;;;;;-148.88;89.91;76244.44;5035627;28;20025;-85
2022/05/22 01:19:28;;;;;;;10.68;5.28;;;;;;;-148.88;89.92;76244.44;5035200;28;20021;-85
2022/05/22 01:21:57;;;;;;;11.10;4.70;;;;;;;-148.88;90.19;76240.38;5016902;28;20071;-85
2022/05/22 01:24:22;;;;;;;10.18;4.68;;;;;;;-148.88;89.82;76236.31;5034214;28;20744;-85
2022/05/22 01:26:49;;;;;;;10.70;4.63;;;;;;;-148.88;89.85;76232.25;5033187;28;20035;-85
2022/05/22 01:29:15;;;;;;;10.80;4.47;;;;;;;-148.88;89.71;76228.19;5034511;28;20025;-85
2022/05/22 01:31:41;;;;;;;7.28;4.80;;;;;;;-148.88;89.67;76236.31;5033309;28;20021;-85
2022/05/22 01:34:09;;;;;;;7.45;4.25;;;;;;;-148.88;89.55;76244.44;5034925;28;20040;-85
2022/05/22 01:36:35;;;;;;;12.57;6.00;;;;;;;-148.88;89.87;76238.34;5016945;28;20478;-85
2022/05/22 01:39:00;;;;;;;10.75;6.22;;;;;;;-148.88;90.29;76244.44;5035767;28;20045;-86
2022/05/22 01:41:40;;;;;;;12.68;6.40;;;;;;;-148.88;90.36;76240.38;5034358;28;20029;-86
2022/05/22 01:44:06;;;;;;;12.20;6.05;;;;;;;-148.88;90.05;76240.38;5016083;28;20077;-85
2022/05/22 01:46:33;;;;;;;14.70;6.75;;;;;;;-148.88;89.31;76238.34;5033375;28;20033;-84
2022/05/22 01:49:05;;;;;;;9.18;5.65;;;;;;;-148.88;89.69;76238.34;5035550;28;20110;-84
2022/05/22 01:51:47;;;;;;;17.98;8.68;;;;;;;-148.88;89.12;76236.31;5019166;28;20033;-83
2022/05/22 01:54:12;;;;;;;8.48;4.40;;;;;;;-148.88;89.29;76242.41;5035905;28;20028;-83
2022/05/22 01:56:38;;;;;;;8.38;4.55;;;;;;;-148.88;89.05;76248.50;5037411;28;20018;-84
2022/05/22 01:59:04;;;;;;;9.13;4.68;;;;;;;-148.88;89.56;76248.50;5035766;28;20040;-85
2022/05/22 02:01:31;;;;;;;16.23;8.02;;;;;;;-148.88;89.40;76246.47;5036982;28;20383;-85
2022/05/22 02:03:56;;;;;;;11.35;5.45;;;;;;;-148.88;89.70;76244.44;5036961;28;20104;-84
2022/05/22 02:06:21;;;;;;;9.40;4.93;;;;;;;-148.88;90.04;76248.50;5037159;28;20494;-84
2022/05/22 02:09:00;;;;;;;11.55;5.72;;;;;;;-148.88;89.85;76248.50;5037617;28;20558;-85
2022/05/22 02:11:25;;;;;;;14.60;6.32;;;;;;;-148.88;89.94;76252.56;5037527;28;20429;-84
2022/05/22 02:13:51;;;;;;;8.52;4.22;;;;;;;-148.88;89.86;76258.66;5037563;28;20489;-85
2022/05/22 02:16:16;;;;;;;8.90;4.78;;;;;;;-148.88;90.07;76270.84;5037429;28;20037;-85
2022/05/22 02:18:42;;;;;;;13.55;4.93;;;;;;;-148.88;89.86;76268.81;5035494;28;20022;-85
2022/05/22 02:21:11;;;;;;;11.20;5.82;;;;;;;-148.88;89.92;76274.91;5037040;28;20426;-84
2022/05/22 02:23:37;;;;;;;15.77;5.10;;;;;;;-148.88;90.02;76272.88;5038509;28;20025;-86
2022/05/22 02:26:08;;;;;;;11.10;4.80;;;;;;;-148.88;90.99;76270.84;5018503;28;20048;-83
2022/05/22 02:28:33;;;;;;;13.13;5.15;;;;;;;-148.88;90.78;76283.03;5034785;28;20029;-84
2022/05/22 02:31:01;;;;;;;8.88;4.50;;;;;;;-148.88;90.83;76274.91;5036458;28;20037;-83
2022/05/22 02:33:26;;;;;;;12.85;4.47;;;;;;;-148.88;90.14;76285.06;5035404;28;20429;-85
2022/05/22 02:35:52;;;;;;;11.52;4.45;;;;;;;-148.88;90.95;76309.44;5034519;28;20014;-84
2022/05/22 02:38:18;;;;;;;11.00;4.70;;;;;;;-148.88;91.29;76311.47;5034714;28;20391;-85
2022/05/22 02:40:44;;;;;;;10.10;4.40;;;;;;;-148.88;91.19;76317.56;5036058;28;20033;-85
2022/05/22 02:43:09;;;;;;;10.93;5.07;;;;;;;-148.88;91.00;76305.38;5034836;28;20116;-85
2022/05/22 02:45:36;;;;;;;10.43;4.68;;;;;;;-148.88;91.00;76303.34;5034725;28;20033;-85
2022/05/22 02:48:02;;;;;;;8.27;4.72;;;;;;;-148.88;90.63;76305.38;5036070;28;20036;-84
2022/05/22 02:50:30;;;;;;;9.02;4.70;;;;;;;-148.88;90.56;76297.25;5035900;28;20029;-84
2022/05/22 02:52:56;;;;;;;9.52;4.75;;;;;;;-148.88;91.00;76307.41;5036257;28;20075;-84
2022/05/22 02:55:22;;;;;;;10.20;4.68;;;;;;;-148.88;91.12;76301.31;5036103;28;20017;-85
2022/05/22 02:57:47;;;;;;;13.48;5.40;;;;;;;-148.88;90.65;76305.38;5035972;28;20025;-85
2022/05/22 03:00:20;;;;;;;9.07;4.78;;;;;;;-148.88;91.22;76325.69;5034893;28;20112;-84
2022/05/22 03:02:45;;;;;;;14.77;5.63;;;;;;;-148.88;92.73;76317.56;5034549;28;20025;-85
2022/05/22 03:05:12;;;;;;;9.38;4.72;;;;;;;-148.88;92.30;76321.63;5035305;28;20117;-84
2022/05/22 03:07:37;;;;;;;11.85;4.72;;;;;;;-148.88;92.12;76315.53;5017779;28;20145;-83
2022/05/22 03:10:10;;;;;;;10.73;4.90;;;;;;;-148.88;92.07;76327.72;5035546;28;20431;-85
2022/05/22 03:12:35;;;;;;;8.40;4.40;;;;;;;-148.88;92.75;76329.75;5035462;28;20096;-86
2022/05/22 03:15:05;;;;;;;12.48;4.50;;;;;;;-148.88;92.92;76343.97;5017339;28;20108;-86
2022/05/22 03:17:31;;;;;;;10.05;5.45;;;;;;;-148.88;93.50;76356.16;5035487;28;20033;-86
2022/05/22 03:19:57;;;;;;;10.40;5.30;;;;;;;-148.88;94.70;76374.44;5034790;28;20030;-84
2022/05/22 03:22:22;;;;;;;11.13;5.20;;;;;;;-148.88;95.20;76378.50;5034762;28;20053;-85
2022/05/22 03:24:47;;;;;;;14.30;6.47;;;;;;;-148.88;96.32;76386.63;5035844;28;20061;-86
2022/05/22 03:27:18;;;;;;;12.98;5.72;;;;;;;-148.88;96.71;76398.81;5036031;28;20033;-85
2022/05/22 03:29:44;;;;;;;13.52;5.70;;;;;;;-148.88;97.20;76411.00;5036362;28;20482;-85
2022/05/22 03:32:11;;;;;;;13.52;6.18;;;;;;;-148.88;97.73;76417.09;5036419;28;20029;-85
2022/05/22 03:34:37;;;;;;;9.70;6.25;;;;;;;-148.88;97.92;76429.31;5035530;28;20457;-85
2022/05/22 03:37:04;;;;;;;13.60;6.40;;;;;;;-148.88;98.41;76427.28;5035699;28;20040;-86
2022/05/22 03:39:30;;;;;;;16.90;6.55;;;;;;;-148.88;98.58;76427.28;5036343;28;20104;-86
2022/05/22 03:41:56;;;;;;;12.75;6.55;;;;;;;-148.88;99.36;76423.19;5034875;28;20017;-83
2022/05/22 03:44:21;;;;;;;11.75;6.50;;;;;;;-148.88;99.01;76406.94;5017170;28;20029;-83
2022/05/22 03:46:49;;;;;;;9.45;5.78;;;;;;;-148.88;98.76;76402.88;5034949;28;20017;-84
2022/05/22 03:49:15;;;;;;;9.90;5.93;;;;;;;-148.88;97.75;76408.97;5034162;28;20061;-84
2022/05/22 03:51:42;;;;;;;12.25;5.78;;;;;;;-148.88;97.56;76408.97;5035648;28;20395;-85
2022/05/22 03:54:09;;;;;;;12.20;5.28;;;;;;;-148.88;97.49;76411.00;5033627;28;20394;-84
2022/05/22 03:56:35;;;;;;;10.05;5.10;;;;;;;-148.88;96.96;76406.94;5018644;28;20029;-82
2022/05/22 03:59:04;;;;;;;11.52;5.10;;;;;;;-148.88;96.58;76413.03;5035713;28;20022;-82
2022/05/22 04:01:29;;;;;;;10.40;4.85;;;;;;;-148.88;96.76;76413.03;5035642;28;20037;-84
2022/05/22 04:03:56;;;;;;;8.50;5.90;;;;;;;-148.88;96.42;76415.06;5035327;28;20104;-84
2022/05/22 04:06:21;;;;;;;9.30;5.28;;;;;;;-148.88;96.95;76402.88;5018429;28;20068;-83
2022/05/22 04:08:47;;;;;;;10.98;5.30;;;;;;;-148.88;96.29;76408.97;5034521;28;20021;-84
2022/05/22 04:11:16;;;;;;;8.98;5.28;;;;;;;-148.88;96.39;76398.81;5035988;28;20475;-84
2022/05/22 04:13:48;;;;;;;11.70;5.50;;;;;;;-148.88;96.60;76392.72;5035913;28;20029;-84
2022/05/22 04:16:16;;;;;;;9.98;5.55;;;;;;;-148.88;96.50;76390.69;5034462;28;20033;-85
2022/05/22 04:18:42;;;;;;;10.50;5.47;;;;;;;-148.88;96.40;76382.56;5034718;28;20466;-83
2022/05/22 04:21:17;;;;;;;9.40;5.10;;;;;;;-148.88;96.42;76382.56;5016863;28;20025;-82
2022/05/22 04:26:35;;;;;;;12.32;4.80;;;;;;;-148.88;96.44;76378.50;5037574;28;20094;-81
2022/05/22 04:29:16;;;;;;;6.35;4.50;;;;;;;-148.88;96.77;76370.38;5035183;28;20112;-83
2022/05/22 04:31:51;;;;;;;12.43;5.43;;;;;;;-148.88;97.00;76376.47;5017989;28;20022;-82
2022/05/22 04:34:22;;;;;;;9.02;4.88;;;;;;;-148.88;97.24;76372.41;5035812;28;20022;-82
2022/05/22 04:36:48;;;;;;;9.80;4.95;;;;;;;-148.88;96.98;76372.41;5036445;28;20075;-82
2022/05/22 04:39:22;;;;;;;9.32;5.20;;;;;;;-148.88;97.17;76370.38;5034469;28;20108;-82
2022/05/22 04:41:51;;;;;;;7.70;4.72;;;;;;;-148.88;97.17;76370.38;5035354;28;20044;-82
2022/05/22 04:44:22;;;;;;;9.75;5.65;;;;;;;-148.88;97.15;76370.38;5034426;28;20037;-82
2022/05/22 04:46:51;;;;;;;12.07;5.65;;;;;;;-148.88;97.63;76368.34;5034284;28;20386;-82
2022/05/22 04:49:21;;;;;;;9.13;5.25;;;;;;;-148.88;97.41;76368.34;5035023;28;20025;-82
2022/05/22 04:51:49;;;;;;;11.90;5.93;;;;;;;-148.88;97.86;76366.31;5036186;28;20356;-80
2022/05/22 04:54:21;;;;;;;10.77;5.20;;;;;;;-148.88;97.66;76362.25;5035803;28;20429;-81
2022/05/22 04:56:52;;;;;;;10.82;5.78;;;;;;;-148.88;97.58;76358.19;5016096;28;20397;-81
2022/05/22 04:59:32;;;;;;;10.68;5.18;;;;;;;-148.88;97.96;76350.06;5016738;28;20100;-82
2022/05/22 05:02:00;;;;;;;9.60;5.47;;;;;;;-148.88;98.03;76346.00;5033561;28;20048;-83
2022/05/22 05:04:29;;;;;;;14.95;5.55;;;;;;;-148.88;97.89;76343.97;5034121;28;20539;-82
2022/05/22 05:06:55;;;;;;;9.30;5.80;;;;;;;-148.88;98.03;76343.97;5016905;28;20116;-80
2022/05/22 05:09:23;;;;;;;12.57;5.40;;;;;;;-148.88;97.56;76346.00;5033509;28;20063;-83
2022/05/22 05:11:51;;;;;;;11.50;5.40;;;;;;;-148.88;97.52;76339.91;5015921;28;20071;-82
2022/05/22 05:14:19;;;;;;;10.63;5.28;;;;;;;-148.88;97.42;76337.88;5033169;28;20022;-83
2022/05/22 05:16:44;;;;;;;8.82;5.32;;;;;;;-148.88;97.58;76335.84;5035032;28;20105;-82
2022/05/22 05:19:10;;;;;;;10.45;4.70;;;;;;;-148.88;97.46;76321.63;5035018;28;20057;-82
2022/05/22 05:21:35;;;;;;;14.18;5.50;;;;;;;-148.88;97.95;76313.50;5016354;28;20033;-84
2022/05/22 05:24:03;;;;;;;13.48;5.20;;;;;;;-148.88;98.32;76313.50;5036467;28;20076;-82
2022/05/22 05:26:29;;;;;;;11.93;5.50;;;;;;;-148.88;98.22;76305.38;5021063;28;20177;-83
2022/05/22 05:28:54;;;;;;;9.70;5.68;;;;;;;-148.88;98.37;76305.38;5039426;28;20037;-82
2022/05/22 05:31:23;;;;;;;10.85;5.70;;;;;;;-148.88;98.38;76301.31;5037670;28;20033;-82
2022/05/22 05:33:51;;;;;;;12.00;5.38;;;;;;;-148.88;98.38;76299.28;5038231;28;20075;-83
2022/05/22 05:36:17;;;;;;;12.32;5.20;;;;;;;-148.88;98.03;76295.22;5037794;28;20018;-83
2022/05/22 05:38:45;;;;;;;12.23;5.78;;;;;;;-148.88;97.63;76297.25;5037143;28;20028;-82
2022/05/22 05:41:13;;;;;;;14.02;5.75;;;;;;;-148.88;97.36;76283.03;5037430;28;20022;-81
2022/05/22 05:43:47;;;;;;;11.70;5.57;;;;;;;-148.88;97.79;76276.94;5037181;28;20029;-82
2022/05/22 05:46:13;;;;;;;9.27;5.47;;;;;;;-148.88;97.63;76272.88;5036516;28;20033;-83
2022/05/22 05:48:38;;;;;;;11.82;6.10;;;;;;;-148.88;97.17;76258.66;5046286;28;20062;-84
2022/05/22 05:51:04;;;;;;;13.82;6.18;;;;;;;-148.88;97.56;76248.50;5058828;28;20025;-83
2022/05/22 05:53:29;;;;;;;9.57;5.55;;;;;;;-148.88;98.71;76228.19;5050025;28;20032;-85
2022/05/22 05:55:54;;;;;;;12.27;6.07;;;;;;;-148.88;98.65;76224.13;5045740;28;20147;-82
2022/05/22 05:58:20;;;;;;;12.70;6.75;;;;;;;-148.88;98.85;76216.00;5028075;28;20500;-85
2022/05/22 06:00:51;;;;;;;15.45;6.35;;;;;;;-148.88;98.87;76207.88;5027355;28;20072;-83
2022/05/22 06:03:17;;;;;;;14.05;6.45;;;;;;;-148.88;98.19;76199.75;5040739;28;20486;-84
2022/05/22 06:05:45;;;;;;;12.68;6.47;;;;;;;-148.88;98.84;76185.53;5043416;28;20029;-83
2022/05/22 06:08:13;;;;;;;13.07;6.43;;;;;;;-148.88;98.37;76175.38;5039214;28;20029;-83
2022/05/22 06:10:39;;;;;;;15.38;5.80;;;;;;;-148.88;98.72;76169.28;5036976;28;20047;-82
2022/05/22 06:13:11;;;;;;;13.55;5.60;;;;;;;-148.88;97.35;76159.13;5037985;28;20021;-85
2022/05/22 06:15:36;;;;;;;10.90;6.07;;;;;;;-148.88;96.57;76161.16;5040549;28;20076;-84
2022/05/22 06:18:01;;;;;;;14.07;5.43;;;;;;;-148.88;96.81;76138.81;5038395;28;20429;-81
2022/05/22 06:20:29;;;;;;;9.23;5.43;;;;;;;-148.88;96.54;76130.69;5038627;28;20394;-83
2022/05/22 06:22:57;;;;;;;8.65;5.32;;;;;;;-148.88;96.37;76114.41;5038826;28;20045;-82
2022/05/22 06:25:26;;;;;;;14.90;6.10;;;;;;;-148.88;95.18;76102.22;5038521;28;20526;-83
2022/05/22 06:27:54;;;;;;;9.10;3.78;;;;;;;-148.88;94.36;76092.06;5040529;28;20076;-84
2022/05/22 06:30:22;;;;;;;13.35;4.28;;;;;;;-148.88;94.33;76085.97;5040641;28;20025;-81
2022/05/22 06:32:48;;;;;;;13.77;4.32;;;;;;;-148.88;92.69;76077.84;5037650;28;20036;-81
2022/05/22 06:35:17;;;;;;;9.70;4.43;;;;;;;-148.88;92.75;76063.63;5035359;28;20033;-81
2022/05/22 06:37:42;;;;;;;10.73;5.18;;;;;;;-148.88;94.35;76059.56;5036745;28;20025;-81
2022/05/22 06:40:09;;;;;;;12.65;4.80;;;;;;;-148.88;93.66;76053.47;5036609;28;20028;-81
2022/05/22 06:42:45;;;;;;;9.40;4.50;;;;;;;-148.88;93.72;76049.41;5035761;28;20048;-84
2022/05/22 06:45:19;;;;;;;16.27;5.20;;;;;;;-148.88;93.72;76041.28;5035598;28;20030;-83
2022/05/22 06:47:51;;;;;;;10.23;4.40;;;;;;;-148.88;93.51;76033.16;5036338;28;20025;-82
2022/05/22 06:50:24;;;;;;;10.32;3.70;;;;;;;-148.88;89.57;76025.03;5037731;28;20029;-84
2022/05/22 06:53:02;;;;;;;14.48;4.22;;;;;;;-148.88;89.39;76010.81;5035798;28;20049;-84
2022/05/22 06:55:40;;;;;;;10.00;3.45;;;;;;;-148.88;88.65;76006.75;5017345;28;20029;-82
2022/05/22 06:58:06;;;;;;;11.73;3.13;;;;;;;-148.88;83.90;75996.59;5022391;28;20095;-85
2022/05/22 07:00:35;;;;;;;9.38;3.15;;;;;;;-148.88;84.46;75984.41;5040695;28;20018;-84
2022/05/22 07:03:04;;;;;;;10.18;3.40;;;;;;;-148.88;82.08;75990.50;5039301;28;20024;-84
2022/05/22 07:05:39;;;;;;;9.35;2.88;;;;;;;-148.88;81.58;75988.47;5036241;28;20112;-85
2022/05/22 07:08:05;;;;;;;8.43;2.45;;;;;;;-148.88;78.42;75982.38;5037700;28;20025;-84
2022/05/22 07:13:33;;;;;;;8.75;2.60;;;;;;;-148.88;81.52;75972.22;5036242;28;20064;-83
2022/05/22 07:16:06;;;;;;;8.43;3.30;;;;;;;-148.88;81.33;75986.44;5017874;28;20045;-84
2022/05/22 07:18:35;;;;;;;7.25;3.25;;;;;;;-148.88;80.85;75960.03;5034739;28;20043;-82
2022/05/22 07:21:12;;;;;;;11.90;3.33;;;;;;;-148.88;79.76;75962.06;5036501;28;20041;-82
2022/05/22 07:23:44;;;;;;;11.10;3.22;;;;;;;-148.88;80.18;75951.91;5034952;28;20406;-83
2022/05/22 07:26:29;;;;;;;7.47;2.80;;;;;;;-148.88;80.84;75935.66;5034137;28;20099;-83
2022/05/22 07:29:12;;;;;;;10.05;3.15;;;;;;;-148.88;78.44;75919.41;5017065;28;20132;-84
2022/05/22 07:31:40;;;;;;;9.43;3.00;;;;;;;-148.88;79.56;75903.16;5035489;28;20025;-84
2022/05/22 07:34:19;;;;;;;11.68;2.90;;;;;;;-148.88;78.67;75874.72;5034727;28;20052;-84
2022/05/22 07:37:37;;;;;;;8.95;3.13;;;;;;;-148.88;76.18;75882.84;5036614;28;20034;-82
2022/05/22 07:40:17;;;;;;;10.30;3.10;;;;;;;-148.88;75.97;75878.78;5023931;28;20037;-83
2022/05/22 07:42:42;;;;;;;11.10;3.03;;;;;;;-148.88;76.72;75882.84;5036976;28;20030;-84
2022/05/22 07:45:15;;;;;;;10.00;3.50;;;;;;;-148.88;76.87;75880.81;5035508;28;20389;-84
2022/05/22 07:47:45;;;;;;;8.37;2.90;;;;;;;-148.88;76.84;75858.47;5036974;28;20113;-85
2022/05/22 07:50:16;;;;;;;12.50;3.17;;;;;;;-148.88;76.61;75854.41;5034314;28;20746;-83
2022/05/22 07:53:18;;;;;;;10.27;3.03;;;;;;;-148.88;76.18;75856.44;5032582;28;20037;-83
2022/05/22 07:55:37;;;;;;;11.35;3.20;;;;;;;-148.88;74.09;75846.28;5040719;22;20461;-77
2022/05/22 07:58:02;;;;;;;7.30;2.80;;;;;;;-148.88;76.04;75825.97;5016594;28;20487;-76
2022/05/22 08:00:28;;;;;;;11.07;3.38;;;;;;;-148.88;76.21;75801.59;5034480;28;20463;-76
2022/05/22 08:02:53;;;;;;;9.98;2.95;;;;;;;-148.88;77.38;75793.47;5016554;28;20029;-76
2022/05/22 08:05:20;;;;;;;11.75;3.05;;;;;;;-148.88;73.52;75773.16;5034104;28;20021;-77
2022/05/22 08:07:45;;;;;;;11.10;2.90;;;;;;;-148.88;74.52;75769.09;5016438;28;20482;-76
2022/05/22 08:10:12;;;;;;;8.82;2.92;;;;;;;-148.88;75.72;75765.03;5016344;28;20025;-76
2022/05/22 08:12:39;;;;;;;8.77;2.95;;;;;;;-148.88;74.74;75777.22;5016335;28;20026;-76
2022/05/22 08:15:07;;;;;;;8.57;3.05;;;;;;;-148.88;76.67;75750.81;5034010;28;20104;-76
2022/05/22 08:17:36;;;;;;;10.93;2.92;;;;;;;-148.88;75.67;75728.47;5033996;28;20025;-76
2022/05/22 08:20:07;;;;;;;8.25;2.80;;;;;;;-148.88;69.54;75765.03;5016181;28;20505;-77
2022/05/22 08:22:33;;;;;;;10.95;2.40;;;;;;;-148.88;67.96;75765.03;5016428;28;20116;-75
2022/05/22 08:25:01;;;;;;;10.40;2.70;;;;;;;-148.88;70.56;75785.34;5034282;28;20104;-76
2022/05/22 08:27:27;;;;;;;8.25;2.30;;;;;;;-148.88;69.38;75793.47;5033757;28;20483;-76
2022/05/22 08:29:53;;;;;;;8.05;2.22;;;;;;;-148.88;69.33;75752.84;5015916;28;20087;-76
2022/05/22 08:32:19;;;;;;;9.30;2.63;;;;;;;-148.88;69.61;75744.72;5015975;28;20470;-77
2022/05/22 08:34:44;;;;;;;7.40;2.25;;;;;;;-148.88;70.55;75724.41;5033666;28;20025;-76
2022/05/22 08:37:10;;;;;;;6.97;2.33;;;;;;;-148.88;68.42;75702.06;5015925;28;20371;-76
2022/05/22 08:39:35;;;;;;;9.27;2.55;;;;;;;-148.88;66.56;75702.06;5016173;28;20023;-76
2022/05/22 08:42:07;;;;;;;8.43;2.17;;;;;;;-148.88;65.01;75661.44;5033451;28;20413;-76
2022/05/22 08:44:33;;;;;;;10.43;2.40;;;;;;;-148.88;64.52;75626.91;5033490;28;20071;-76
2022/05/22 08:47:07;;;;;;;5.53;1.98;;;;;;;-148.88;65.22;75618.78;5015765;28;20026;-76
2022/05/22 08:49:41;;;;;;;7.00;2.25;;;;;;;-148.88;68.50;75606.59;5015860;28;20462;-76
2022/05/22 08:52:32;;;;;;;7.60;2.25;;;;;;;-148.88;65.83;75594.44;5015677;28;20582;-76
2022/05/22 08:55:07;;;;;;;5.35;2.17;;;;;;;-148.88;67.41;75584.25;5015541;28;20025;-76
2022/05/22 09:00:28;;;;;;;7.35;2.72;;;;;;;-148.88;65.46;75592.38;5034060;28;20029;-76
2022/05/22 09:03:14;;;;;;;6.82;2.45;;;;;;;-148.88;66.12;75561.94;5033430;28;20083;-76
2022/05/22 09:05:40;;;;;;;10.13;2.42;;;;;;;-148.88;66.59;75531.47;5015603;28;20159;-76
2022/05/22 09:08:17;;;;;;;8.85;2.03;;;;;;;-148.88;61.66;75557.88;5015842;28;20036;-76
2022/05/22 09:11:24;;;;;;;13.85;2.53;;;;;;;-148.88;62.83;75549.75;5033211;28;20022;-76
2022/05/22 09:14:01;;;;;;;5.65;1.85;;;;;;;-148.88;66.08;75545.69;4956391;28;20026;-76
2022/05/22 09:16:35;;;;;;;13.05;2.42;;;;;;;-148.88;65.17;75521.31;5010531;28;20441;-76
2022/05/22 09:19:09;;;;;;;6.85;1.95;;;;;;;-148.88;59.82;75503.03;5033361;28;20033;-76
2022/05/22 09:21:51;;;;;;;5.70;1.67;;;;;;;-148.88;57.54;75484.75;5033134;28;20061;-74
2022/05/22 09:24:32;;;;;;;6.75;1.80;;;;;;;-148.88;59.75;75533.50;5015431;28;20029;-75
2022/05/22 09:27:03;;;;;;;5.95;1.58;;;;;;;-148.88;59.37;75501.00;5015435;28;20065;-76
2022/05/22 09:30:02;;;;;;;5.53;1.42;;;;;;;-148.88;59.75;75440.06;5015350;28;20029;-76
2022/05/22 09:33:10;;;;;;;7.53;1.70;;;;;;;-148.88;57.16;75413.66;5033124;28;20028;-76
2022/05/22 09:35:44;;;;;;;6.53;1.70;;;;;;;-148.88;58.29;75358.81;5016134;28;20025;-76
2022/05/22 09:38:33;;;;;;;6.88;1.63;;;;;;;-148.88;56.09;75348.66;5016495;28;20051;-76
2022/05/22 09:41:06;;;;;;;6.35;2.10;;;;;;;-148.88;54.85;75350.69;5015192;28;20121;-76
2022/05/22 09:43:46;;;;;;;6.78;1.65;;;;;;;-148.88;54.84;75362.88;5015263;28;20026;-76
2022/05/22 09:46:19;;;;;;;5.13;1.58;;;;;;;-148.88;54.45;75346.63;5032914;28;20068;-76
2022/05/22 09:49:12;;;;;;;5.72;1.80;;;;;;;-148.88;54.09;75279.59;5036323;28;20087;-79
2022/05/22 09:51:52;;;;;;;4.90;1.60;;;;;;;-148.88;54.02;75220.72;5020186;28;20025;-78
2022/05/22 09:54:27;;;;;;;6.85;1.67;;;;;;;-148.88;53.56;75314.13;5017460;28;20029;-76
2022/05/22 09:57:04;;;;;;;7.68;1.70;;;;;;;-148.88;53.34;75346.63;5015128;28;20478;-77
2022/05/22 09:59:38;;;;;;;6.70;1.70;;;;;;;-148.88;53.15;75318.19;5015177;28;20036;-77
2022/05/22 10:02:15;;;;;;;4.82;1.90;;;;;;;-148.88;52.74;75354.75;5032777;28;20100;-77
2022/05/22 10:04:52;;;;;;;6.35;1.73;;;;;;;-148.88;53.54;75320.22;5033052;28;20490;-77
2022/05/22 10:07:39;;;;;;;8.80;1.48;;;;;;;-148.88;52.23;75277.59;5014964;28;20040;-77
2022/05/22 10:10:35;;;;;;;8.45;1.80;;;;;;;-148.88;52.38;75234.94;5018553;28;20040;-76
2022/05/22 10:13:12;;;;;;;5.22;1.80;;;;;;;-148.88;57.03;75332.41;5018696;28;20029;-77
2022/05/22 10:16:04;;;;;;;5.82;1.70;;;;;;;-148.88;55.28;75338.50;5018540;28;20033;-77
2022/05/22 10:18:53;;;;;;;5.90;2.15;;;;;;;-148.88;54.70;75289.75;5036400;28;20029;-77
2022/05/22 10:21:21;;;;;;;5.38;1.75;;;;;;;-148.88;54.42;75216.66;5018329;28;20030;-77
2022/05/22 10:24:12;;;;;;;8.60;1.98;;;;;;;-148.88;51.99;75192.28;5036737;28;20120;-78
2022/05/22 10:26:56;;;;;;;9.10;1.67;;;;;;;-148.88;50.77;75208.53;5036776;28;20049;-77
2022/05/22 10:29:37;;;;;;;6.57;1.80;;;;;;;-148.88;55.89;75293.81;5018952;28;20135;-78
2022/05/22 10:32:17;;;;;;;4.93;1.80;;;;;;;-148.88;54.22;75322.25;5036336;28;20029;-77
2022/05/22 10:34:55;;;;;;;6.70;1.77;;;;;;;-148.88;55.16;75310.06;5036196;28;20039;-77
2022/05/22 10:37:31;;;;;;;5.20;2.20;;;;;;;-148.88;55.18;75216.66;5036048;28;20025;-77
2022/05/22 10:39:58;;;;;;;5.22;1.80;;;;;;;-148.88;54.28;75159.78;5017975;28;20032;-77
2022/05/22 10:42:45;;;;;;;6.28;1.92;;;;;;;-148.88;53.52;75176.03;5035671;28;20029;-77
2022/05/22 10:45:37;;;;;;;6.47;1.75;;;;;;;-148.88;51.00;75096.81;5021975;28;20025;-78
2022/05/22 10:48:09;;;;;;;11.40;2.20;;;;;;;-148.88;52.41;75060.28;5018796;28;20037;-77
2022/05/22 10:50:35;;;;;;;6.50;2.20;;;;;;;-148.88;47.72;75050.13;5019919;28;20569;-77
2022/05/22 10:53:00;;;;;;;6.15;1.75;;;;;;;-148.88;47.28;75117.13;5019883;28;20060;-78
2022/05/22 10:55:44;;;;;;;5.70;1.85;;;;;;;-148.88;50.49;75082.63;5020141;28;20160;-78
2022/05/22 10:58:39;;;;;;;6.10;1.92;;;;;;;-148.88;49.62;74981.06;5042282;28;20056;-79
2022/05/22 11:01:15;;;;;;;6.63;1.50;;;;;;;-148.88;47.53;74920.16;5039034;28;20038;-79
2022/05/22 11:03:40;;;;;;;6.72;1.70;;;;;;;-148.88;48.83;74993.25;5022346;28;20026;-78
2022/05/22 11:06:22;;;;;;;4.78;1.30;;;;;;;-148.88;49.33;75068.41;5022040;28;20020;-78
2022/05/22 11:08:50;;;;;;;6.53;1.65;;;;;;;-148.88;47.68;75100.88;5040160;28;20386;-78
2022/05/22 11:11:20;;;;;;;10.00;2.03;;;;;;;-148.88;49.14;75060.28;5021044;28;20029;-77
2022/05/22 11:13:46;;;;;;;5.13;1.83;;;;;;;-148.88;46.67;75042.00;5019703;28;20032;-76
2022/05/22 11:16:14;;;;;;;5.03;1.70;;;;;;;-148.88;46.31;75044.03;5017657;28;20025;-77
2022/05/22 11:18:40;;;;;;;5.53;1.70;;;;;;;-148.88;48.08;75064.34;5035424;28;20087;-77
2022/05/22 11:21:24;;;;;;;5.35;1.75;;;;;;;-148.88;46.69;75052.16;5034136;28;20022;-77
2022/05/22 11:23:55;;;;;;;5.43;1.50;;;;;;;-148.88;47.04;74985.13;5017605;28;20060;-77
2022/05/22 11:26:45;;;;;;;3.95;1.52;;;;;;;-148.88;49.95;74940.47;5036116;28;20021;-77
2022/05/22 11:29:34;;;;;;;4.28;1.48;;;;;;;-148.88;49.23;74863.28;5037550;28;20479;-77
2022/05/22 11:32:12;;;;;;;3.13;1.42;;;;;;;-148.88;48.73;74788.16;5017464;28;20437;-77
2022/05/22 11:34:46;;;;;;;6.75;1.67;;;;;;;-148.88;46.17;74782.06;5017400;28;20025;-77
2022/05/22 11:37:26;;;;;;;5.10;1.73;;;;;;;-148.88;48.42;74867.34;5017981;28;20052;-79
2022/05/22 11:40:00;;;;;;;4.80;1.52;;;;;;;-148.88;47.21;74887.66;5017201;28;20022;-77
2022/05/22 11:42:39;;;;;;;5.20;1.80;;;;;;;-148.88;48.35;74972.94;5017324;28;20403;-77